createdAt,value
2018-08-03T00:00:28.000Z,34
2018-08-03T00:01:28.000Z,34
2018-08-03T00:02:28.000Z,34
2018-08-03T00:03:28.000Z,34
2018-08-03T00:04:28.000Z,34
2018-08-03T00:05:28.000Z,34
2018-08-03T00:06:28.000Z,34
2018-08-03T00:08:28.000Z,34
2018-08-03T00:09:28.000Z,34
2018-08-03T00:10:28.000Z,34
2018-08-03T00:11:28.000Z,34
2018-08-03T00:12:28.000Z,34
2018-08-03T00:13:28.000Z,35
2018-08-03T00:14:28.000Z,34
2018-08-03T00:15:28.000Z,34
2018-08-03T00:16:28.000Z,34
2018-08-03T00:17:28.000Z,34
2018-08-03T00:18:28.000Z,34
2018-08-03T00:20:28.000Z,34
2018-08-03T00:21:28.000Z,35
2018-08-03T00:22:28.000Z,35
2018-08-03T00:24:28.000Z,35
2018-08-03T00:25:28.000Z,35
2018-08-03T00:26:28.000Z,35
2018-08-03T00:27:28.000Z,35
2018-08-03T00:28:28.000Z,35
2018-08-03T00:30:28.000Z,35
2018-08-03T00:31:28.000Z,35
2018-08-03T00:32:28.000Z,35
2018-08-03T00:34:28.000Z,35
2018-08-03T00:35:28.000Z,35
2018-08-03T00:36:28.000Z,35
2018-08-03T00:37:28.000Z,35
2018-08-03T00:38:28.000Z,35
2018-08-03T00:39:28.000Z,35
2018-08-03T00:40:28.000Z,35
2018-08-03T00:41:28.000Z,35
2018-08-03T00:42:27.000Z,35
2018-08-03T00:43:27.000Z,35
2018-08-03T00:44:27.000Z,35
2018-08-03T00:45:27.000Z,35
2018-08-03T00:46:27.000Z,35
2018-08-03T00:48:27.000Z,35
2018-08-03T00:49:27.000Z,35
2018-08-03T00:50:27.000Z,35
2018-08-03T00:51:27.000Z,35
2018-08-03T00:52:27.000Z,35
2018-08-03T00:53:27.000Z,35
2018-08-03T00:54:27.000Z,36
2018-08-03T00:55:27.000Z,35
2018-08-03T00:56:27.000Z,36
2018-08-03T00:57:27.000Z,35
2018-08-03T00:58:27.000Z,36
2018-08-03T00:59:27.000Z,36
2018-08-03T01:00:27.000Z,36
2018-08-03T01:01:27.000Z,35
2018-08-03T01:02:27.000Z,36
2018-08-03T01:03:27.000Z,36
2018-08-03T01:04:27.000Z,35
2018-08-03T01:05:27.000Z,36
2018-08-03T01:06:27.000Z,35
2018-08-03T01:08:27.000Z,36
2018-08-03T01:09:27.000Z,36
2018-08-03T01:10:27.000Z,36
2018-08-03T01:11:27.000Z,36
2018-08-03T01:13:27.000Z,36
2018-08-03T01:15:27.000Z,36
2018-08-03T01:16:27.000Z,36
2018-08-03T01:17:27.000Z,36
2018-08-03T01:19:27.000Z,36
2018-08-03T01:20:27.000Z,36
2018-08-03T01:21:27.000Z,36
2018-08-03T01:22:27.000Z,36
2018-08-03T01:24:27.000Z,36
2018-08-03T01:25:27.000Z,37
2018-08-03T01:27:27.000Z,37
2018-08-03T01:28:27.000Z,37
2018-08-03T01:29:27.000Z,37
2018-08-03T01:30:27.000Z,37
2018-08-03T01:32:27.000Z,36
2018-08-03T01:33:27.000Z,37
2018-08-03T01:34:27.000Z,36
2018-08-03T01:35:27.000Z,37
2018-08-03T01:36:27.000Z,36
2018-08-03T01:37:27.000Z,37
2018-08-03T01:38:27.000Z,37
2018-08-03T01:39:27.000Z,37
2018-08-03T01:41:27.000Z,36
2018-08-03T01:42:27.000Z,37
2018-08-03T01:43:27.000Z,37
2018-08-03T01:45:27.000Z,36
2018-08-03T01:46:27.000Z,37
2018-08-03T01:47:27.000Z,37
2018-08-03T01:48:27.000Z,37
2018-08-03T01:49:27.000Z,36
2018-08-03T01:50:27.000Z,37
2018-08-03T01:51:27.000Z,36
2018-08-03T01:52:27.000Z,37
2018-08-03T01:54:27.000Z,36
2018-08-03T01:55:27.000Z,37
2018-08-03T01:56:27.000Z,37
2018-08-03T01:58:27.000Z,37
2018-08-03T01:59:27.000Z,37
2018-08-03T02:00:27.000Z,37
2018-08-03T02:01:27.000Z,37
2018-08-03T02:02:27.000Z,37
2018-08-03T02:03:27.000Z,37
2018-08-03T02:04:27.000Z,37
2018-08-03T02:05:27.000Z,37
2018-08-03T02:06:27.000Z,37
2018-08-03T02:07:27.000Z,37
2018-08-03T02:08:27.000Z,37
2018-08-03T02:09:27.000Z,37
2018-08-03T02:11:27.000Z,37
2018-08-03T02:12:27.000Z,37
2018-08-03T02:13:27.000Z,37
2018-08-03T02:14:27.000Z,37
2018-08-03T02:15:27.000Z,37
2018-08-03T02:16:27.000Z,37
2018-08-03T02:17:27.000Z,37
2018-08-03T02:18:27.000Z,37
2018-08-03T02:20:27.000Z,37
2018-08-03T02:21:27.000Z,37
2018-08-03T02:22:27.000Z,37
2018-08-03T02:23:27.000Z,37
2018-08-03T02:24:27.000Z,37
2018-08-03T02:25:27.000Z,37
2018-08-03T02:26:27.000Z,37
2018-08-03T02:27:27.000Z,37
2018-08-03T02:28:27.000Z,37
2018-08-03T02:29:27.000Z,37
2018-08-03T02:30:27.000Z,37
2018-08-03T02:32:27.000Z,37
2018-08-03T02:33:27.000Z,37
2018-08-03T02:34:27.000Z,37
2018-08-03T02:35:27.000Z,37
2018-08-03T02:36:27.000Z,37
2018-08-03T02:38:27.000Z,37
2018-08-03T02:39:27.000Z,38
2018-08-03T02:40:27.000Z,38
2018-08-03T02:41:27.000Z,38
2018-08-03T02:42:27.000Z,38
2018-08-03T02:43:27.000Z,38
2018-08-03T02:44:27.000Z,38
2018-08-03T02:45:27.000Z,38
2018-08-03T02:46:27.000Z,38
2018-08-03T02:47:27.000Z,38
2018-08-03T02:48:27.000Z,38
2018-08-03T02:49:28.000Z,38
2018-08-03T02:50:28.000Z,38
2018-08-03T02:51:28.000Z,38
2018-08-03T02:52:28.000Z,38
2018-08-03T02:54:28.000Z,38
2018-08-03T02:55:28.000Z,38
2018-08-03T02:56:28.000Z,38
2018-08-03T02:57:28.000Z,38
2018-08-03T02:58:28.000Z,38
2018-08-03T02:59:28.000Z,38
2018-08-03T03:00:28.000Z,38
2018-08-03T03:01:28.000Z,38
2018-08-03T03:03:28.000Z,38
2018-08-03T03:04:28.000Z,38
2018-08-03T03:05:28.000Z,38
2018-08-03T03:06:28.000Z,38
2018-08-03T03:07:28.000Z,38
2018-08-03T03:09:28.000Z,38
2018-08-03T03:10:28.000Z,38
2018-08-03T03:11:28.000Z,38
2018-08-03T03:12:28.000Z,38
2018-08-03T03:13:28.000Z,38
2018-08-03T03:15:28.000Z,38
2018-08-03T03:16:28.000Z,38
2018-08-03T03:17:28.000Z,38
2018-08-03T03:18:28.000Z,39
2018-08-03T03:19:28.000Z,38
2018-08-03T03:20:28.000Z,39
2018-08-03T03:21:28.000Z,39
2018-08-03T03:22:28.000Z,39
2018-08-03T03:23:28.000Z,39
2018-08-03T03:24:28.000Z,39
2018-08-03T03:25:28.000Z,39
2018-08-03T03:26:28.000Z,39
2018-08-03T03:27:28.000Z,39
2018-08-03T03:28:28.000Z,39
2018-08-03T03:29:28.000Z,39
2018-08-03T03:31:28.000Z,39
2018-08-03T03:33:28.000Z,39
2018-08-03T03:34:28.000Z,39
2018-08-03T03:35:28.000Z,39
2018-08-03T03:36:28.000Z,39
2018-08-03T03:37:28.000Z,39
2018-08-03T03:38:28.000Z,39
2018-08-03T03:39:28.000Z,39
2018-08-03T03:40:28.000Z,39
2018-08-03T03:41:28.000Z,39
2018-08-03T03:42:28.000Z,39
2018-08-03T03:43:28.000Z,39
2018-08-03T03:45:28.000Z,39
2018-08-03T03:46:28.000Z,39
2018-08-03T03:47:28.000Z,39
2018-08-03T03:49:28.000Z,39
2018-08-03T03:50:28.000Z,39
2018-08-03T03:51:28.000Z,39
2018-08-03T03:52:28.000Z,39
2018-08-03T03:53:28.000Z,39
2018-08-03T03:54:28.000Z,39
2018-08-03T03:55:28.000Z,39
2018-08-03T03:56:28.000Z,39
2018-08-03T03:57:28.000Z,39
2018-08-03T03:58:28.000Z,39
2018-08-03T03:59:28.000Z,39
2018-08-03T04:00:28.000Z,39
2018-08-03T04:01:28.000Z,39
2018-08-03T04:02:28.000Z,39
2018-08-03T04:03:28.000Z,39
2018-08-03T04:05:28.000Z,39
2018-08-03T04:06:28.000Z,39
2018-08-03T04:07:28.000Z,39
2018-08-03T04:09:28.000Z,39
2018-08-03T04:10:28.000Z,39
2018-08-03T04:11:28.000Z,39
2018-08-03T04:13:28.000Z,39
2018-08-03T04:14:28.000Z,39
2018-08-03T04:15:28.000Z,39
2018-08-03T04:16:28.000Z,40
2018-08-03T04:17:28.000Z,40
2018-08-03T04:18:28.000Z,39
2018-08-03T04:19:28.000Z,39
2018-08-03T04:20:28.000Z,39
2018-08-03T04:21:28.000Z,39
2018-08-03T04:22:28.000Z,39
2018-08-03T04:24:28.000Z,39
2018-08-03T04:25:28.000Z,39
2018-08-03T04:26:28.000Z,39
2018-08-03T04:27:28.000Z,39
2018-08-03T04:28:28.000Z,39
2018-08-03T04:29:28.000Z,39
2018-08-03T04:31:28.000Z,38
2018-08-03T04:32:28.000Z,38
2018-08-03T04:33:28.000Z,39
2018-08-03T04:34:28.000Z,39
2018-08-03T04:35:28.000Z,39
2018-08-03T04:37:28.000Z,40
2018-08-03T04:38:28.000Z,41
2018-08-03T04:39:28.000Z,41
2018-08-03T04:40:28.000Z,42
2018-08-03T04:41:28.000Z,43
2018-08-03T04:42:28.000Z,43
2018-08-03T04:43:28.000Z,43
2018-08-03T04:44:28.000Z,43
2018-08-03T04:45:28.000Z,43
2018-08-03T04:46:28.000Z,43
2018-08-03T04:47:28.000Z,44
2018-08-03T04:48:28.000Z,44
2018-08-03T04:49:28.000Z,44
2018-08-03T04:50:28.000Z,44
2018-08-03T04:51:28.000Z,44
2018-08-03T04:52:28.000Z,44
2018-08-03T04:54:28.000Z,44
2018-08-03T04:55:28.000Z,44
2018-08-03T04:56:28.000Z,44
2018-08-03T04:57:28.000Z,44
2018-08-03T04:58:28.000Z,44
2018-08-03T04:59:28.000Z,44
2018-08-03T05:01:28.000Z,44
2018-08-03T05:02:28.000Z,45
2018-08-03T05:03:28.000Z,45
2018-08-03T05:04:28.000Z,45
2018-08-03T05:06:28.000Z,45
2018-08-03T05:07:28.000Z,46
2018-08-03T05:08:28.000Z,46
2018-08-03T05:09:28.000Z,46
2018-08-03T05:10:28.000Z,46
2018-08-03T05:11:28.000Z,46
2018-08-03T05:13:28.000Z,46
2018-08-03T05:14:28.000Z,46
2018-08-03T05:15:28.000Z,46
2018-08-03T05:16:28.000Z,46
2018-08-03T05:17:28.000Z,46
2018-08-03T05:18:28.000Z,46
2018-08-03T05:19:28.000Z,46
2018-08-03T05:20:28.000Z,46
2018-08-03T05:21:28.000Z,46
2018-08-03T05:22:28.000Z,46
2018-08-03T05:23:28.000Z,46
2018-08-03T05:24:28.000Z,46
2018-08-03T05:25:28.000Z,46
2018-08-03T05:26:28.000Z,46
2018-08-03T05:27:28.000Z,46
2018-08-03T05:28:28.000Z,46
2018-08-03T05:29:28.000Z,46
2018-08-03T05:30:28.000Z,46
2018-08-03T05:31:28.000Z,46
2018-08-03T05:32:28.000Z,46
2018-08-03T05:33:28.000Z,46
2018-08-03T05:34:28.000Z,46
2018-08-03T05:35:28.000Z,46
2018-08-03T05:36:28.000Z,46
2018-08-03T05:37:28.000Z,46
2018-08-03T05:39:28.000Z,45
2018-08-03T05:40:28.000Z,46
2018-08-03T05:41:28.000Z,45
2018-08-03T05:42:28.000Z,46
2018-08-03T05:43:28.000Z,46
2018-08-03T05:44:28.000Z,46
2018-08-03T05:45:28.000Z,45
2018-08-03T05:46:28.000Z,45
2018-08-03T05:47:28.000Z,45
2018-08-03T05:48:28.000Z,45
2018-08-03T05:49:28.000Z,45
2018-08-03T05:50:28.000Z,45
2018-08-03T05:51:28.000Z,45
2018-08-03T05:52:28.000Z,45
2018-08-03T05:53:28.000Z,45
2018-08-03T05:54:28.000Z,45
2018-08-03T05:55:28.000Z,45
2018-08-03T05:56:28.000Z,45
2018-08-03T05:57:28.000Z,45
2018-08-03T05:59:28.000Z,45
2018-08-03T06:00:28.000Z,45
2018-08-03T06:01:28.000Z,45
2018-08-03T06:02:28.000Z,45
2018-08-03T06:03:28.000Z,45
2018-08-03T06:04:28.000Z,45
2018-08-03T06:05:28.000Z,45
2018-08-03T06:07:28.000Z,45
2018-08-03T06:08:28.000Z,45
2018-08-03T06:09:28.000Z,45
2018-08-03T06:10:28.000Z,45
2018-08-03T06:11:28.000Z,45
2018-08-03T06:12:28.000Z,45
2018-08-03T06:13:28.000Z,45
2018-08-03T06:14:28.000Z,45
2018-08-03T06:15:28.000Z,44
2018-08-03T06:16:28.000Z,44
2018-08-03T06:17:28.000Z,44
2018-08-03T06:18:28.000Z,44
2018-08-03T06:20:28.000Z,44
2018-08-03T06:21:28.000Z,44
2018-08-03T06:22:28.000Z,44
2018-08-03T06:23:28.000Z,44
2018-08-03T06:24:28.000Z,43
2018-08-03T06:26:28.000Z,43
2018-08-03T06:27:28.000Z,43
2018-08-03T06:28:28.000Z,43
2018-08-03T06:29:28.000Z,43
2018-08-03T06:30:28.000Z,43
2018-08-03T06:31:28.000Z,43
2018-08-03T06:32:28.000Z,43
2018-08-03T06:33:28.000Z,43
2018-08-03T06:34:28.000Z,43
2018-08-03T06:35:28.000Z,43
2018-08-03T06:36:28.000Z,43
2018-08-03T06:37:28.000Z,43
2018-08-03T06:38:28.000Z,42
2018-08-03T06:39:28.000Z,42
2018-08-03T06:40:28.000Z,42
2018-08-03T06:41:28.000Z,42
2018-08-03T06:42:28.000Z,42
2018-08-03T06:43:28.000Z,42
2018-08-03T06:45:28.000Z,42
2018-08-03T06:46:28.000Z,42
2018-08-03T06:47:28.000Z,42
2018-08-03T06:49:28.000Z,42
2018-08-03T06:50:28.000Z,43
2018-08-03T06:51:28.000Z,43
2018-08-03T06:52:28.000Z,43
2018-08-03T06:53:28.000Z,43
2018-08-03T06:54:28.000Z,42
2018-08-03T06:55:28.000Z,43
2018-08-03T06:56:28.000Z,43
2018-08-03T06:57:28.000Z,42
2018-08-03T06:59:28.000Z,42
2018-08-03T07:00:28.000Z,43
2018-08-03T07:01:28.000Z,42
2018-08-03T07:02:28.000Z,42
2018-08-03T07:03:28.000Z,42
2018-08-03T07:04:28.000Z,42
2018-08-03T07:05:28.000Z,42
2018-08-03T07:06:28.000Z,42
2018-08-03T07:08:28.000Z,42
2018-08-03T07:10:28.000Z,41
2018-08-03T07:11:28.000Z,42
2018-08-03T07:12:28.000Z,42
2018-08-03T07:13:28.000Z,42
2018-08-03T07:14:28.000Z,42
2018-08-03T07:15:28.000Z,41
2018-08-03T07:17:28.000Z,41
2018-08-03T07:18:28.000Z,42
2018-08-03T07:19:28.000Z,42
2018-08-03T07:20:28.000Z,42
2018-08-03T07:21:28.000Z,41
2018-08-03T07:23:28.000Z,41
2018-08-03T07:24:28.000Z,41
2018-08-03T07:25:28.000Z,41
2018-08-03T07:26:28.000Z,41
2018-08-03T07:27:28.000Z,41
2018-08-03T07:28:28.000Z,41
2018-08-03T07:29:28.000Z,41
2018-08-03T07:30:28.000Z,41
2018-08-03T07:32:28.000Z,41
2018-08-03T07:33:28.000Z,41
2018-08-03T07:34:28.000Z,41
2018-08-03T07:35:28.000Z,41
2018-08-03T07:37:28.000Z,40
2018-08-03T07:38:28.000Z,40
2018-08-03T07:40:28.000Z,40
2018-08-03T07:41:28.000Z,40
2018-08-03T07:42:28.000Z,40
2018-08-03T07:44:28.000Z,40
2018-08-03T07:45:28.000Z,40
2018-08-03T07:46:28.000Z,40
2018-08-03T07:47:28.000Z,40
2018-08-03T07:49:28.000Z,40
2018-08-03T07:50:28.000Z,40
2018-08-03T07:51:28.000Z,40
2018-08-03T07:52:28.000Z,40
2018-08-03T07:53:28.000Z,40
2018-08-03T07:54:28.000Z,39
2018-08-03T07:55:28.000Z,39
2018-08-03T07:56:28.000Z,39
2018-08-03T07:57:28.000Z,39
2018-08-03T07:58:28.000Z,39
2018-08-03T07:59:28.000Z,39
2018-08-03T08:01:28.000Z,39
2018-08-03T08:02:28.000Z,39
2018-08-03T08:03:28.000Z,39
2018-08-03T08:04:28.000Z,39
2018-08-03T08:05:28.000Z,39
2018-08-03T08:06:28.000Z,39
2018-08-03T08:08:27.000Z,38
2018-08-03T08:10:27.000Z,38
2018-08-03T08:11:27.000Z,38
2018-08-03T08:12:27.000Z,38
2018-08-03T08:13:27.000Z,38
2018-08-03T08:15:27.000Z,38
2018-08-03T08:16:27.000Z,38
2018-08-03T08:17:27.000Z,38
2018-08-03T08:18:27.000Z,38
2018-08-03T08:19:27.000Z,38
2018-08-03T08:20:27.000Z,38
2018-08-03T08:21:27.000Z,37
2018-08-03T08:22:27.000Z,38
2018-08-03T08:23:27.000Z,37
2018-08-03T08:24:27.000Z,37
2018-08-03T08:25:27.000Z,37
2018-08-03T08:26:27.000Z,37
2018-08-03T08:28:27.000Z,37
2018-08-03T08:29:27.000Z,37
2018-08-03T08:31:27.000Z,37
2018-08-03T08:32:27.000Z,37
2018-08-03T08:33:27.000Z,37
2018-08-03T08:35:27.000Z,37
2018-08-03T08:36:27.000Z,37
2018-08-03T08:37:27.000Z,36
2018-08-03T08:38:27.000Z,36
2018-08-03T08:39:27.000Z,36
2018-08-03T08:40:27.000Z,36
2018-08-03T08:41:27.000Z,36
2018-08-03T08:42:27.000Z,36
2018-08-03T08:43:27.000Z,36
2018-08-03T08:44:27.000Z,36
2018-08-03T08:45:27.000Z,36
2018-08-03T08:46:27.000Z,36
2018-08-03T08:47:27.000Z,36
2018-08-03T08:48:27.000Z,36
2018-08-03T08:49:27.000Z,36
2018-08-03T08:50:27.000Z,36
2018-08-03T08:51:27.000Z,36
2018-08-03T08:52:27.000Z,36
2018-08-03T08:53:27.000Z,36
2018-08-03T08:54:27.000Z,36
2018-08-03T08:55:27.000Z,36
2018-08-03T08:57:27.000Z,36
2018-08-03T08:58:27.000Z,36
2018-08-03T08:59:27.000Z,36
2018-08-03T09:00:27.000Z,36
2018-08-03T09:01:27.000Z,36
2018-08-03T09:02:27.000Z,36
2018-08-03T09:03:27.000Z,36
2018-08-03T09:04:27.000Z,36
2018-08-03T09:05:27.000Z,36
2018-08-03T09:06:27.000Z,36
2018-08-03T09:07:27.000Z,36
2018-08-03T09:08:27.000Z,35
2018-08-03T09:09:27.000Z,36
2018-08-03T09:10:27.000Z,36
2018-08-03T09:11:28.000Z,36
2018-08-03T09:13:28.000Z,35
2018-08-03T09:15:28.000Z,35
2018-08-03T09:16:28.000Z,35
2018-08-03T09:17:28.000Z,35
2018-08-03T09:18:28.000Z,35
2018-08-03T09:20:28.000Z,35
2018-08-03T09:21:28.000Z,35
2018-08-03T09:22:28.000Z,35
2018-08-03T09:23:28.000Z,35
2018-08-03T09:24:28.000Z,34
2018-08-03T09:25:28.000Z,34
2018-08-03T09:26:28.000Z,34
2018-08-03T09:27:28.000Z,34
2018-08-03T09:29:28.000Z,34
2018-08-03T09:30:28.000Z,34
2018-08-03T09:31:28.000Z,34
2018-08-03T09:32:28.000Z,34
2018-08-03T09:33:28.000Z,34
2018-08-03T09:34:28.000Z,34
2018-08-03T09:35:28.000Z,34
2018-08-03T09:36:28.000Z,34
2018-08-03T09:37:28.000Z,34
2018-08-03T09:38:28.000Z,34
2018-08-03T09:39:28.000Z,34
2018-08-03T09:41:28.000Z,34
2018-08-03T09:42:28.000Z,34
2018-08-03T09:44:28.000Z,34
2018-08-03T09:45:28.000Z,34
2018-08-03T09:46:28.000Z,34
2018-08-03T09:48:28.000Z,34
2018-08-03T09:49:28.000Z,35
2018-08-03T09:50:28.000Z,34
2018-08-03T09:51:28.000Z,34
2018-08-03T09:52:28.000Z,34
2018-08-03T09:53:28.000Z,34
2018-08-03T09:54:28.000Z,34
2018-08-03T09:56:28.000Z,34
2018-08-03T09:57:28.000Z,34
2018-08-03T09:58:28.000Z,34
2018-08-03T09:59:28.000Z,33
2018-08-03T10:00:28.000Z,33
2018-08-03T10:01:28.000Z,33
2018-08-03T10:02:28.000Z,33
2018-08-03T10:03:28.000Z,33
2018-08-03T10:04:28.000Z,33
2018-08-03T10:05:28.000Z,33
2018-08-03T10:06:28.000Z,33
2018-08-03T10:07:28.000Z,33
2018-08-03T10:08:28.000Z,33
2018-08-03T10:09:28.000Z,33
2018-08-03T10:10:28.000Z,34
2018-08-03T10:11:28.000Z,33
2018-08-03T10:12:28.000Z,34
2018-08-03T10:13:28.000Z,33
2018-08-03T10:15:28.000Z,33
2018-08-03T10:16:28.000Z,33
2018-08-03T10:17:28.000Z,33
2018-08-03T10:18:28.000Z,33
2018-08-03T10:19:28.000Z,33
2018-08-03T10:20:28.000Z,33
2018-08-03T10:21:28.000Z,33
2018-08-03T10:22:28.000Z,34
2018-08-03T10:23:28.000Z,34
2018-08-03T10:24:28.000Z,34
2018-08-03T10:25:28.000Z,34
2018-08-03T10:26:28.000Z,34
2018-08-03T10:27:28.000Z,34
2018-08-03T10:28:28.000Z,34
2018-08-03T10:29:28.000Z,34
2018-08-03T10:30:28.000Z,34
2018-08-03T10:31:28.000Z,33
2018-08-03T10:32:28.000Z,33
2018-08-03T10:33:28.000Z,33
2018-08-03T10:34:28.000Z,33
2018-08-03T10:36:28.000Z,33
2018-08-03T10:37:28.000Z,33
2018-08-03T10:38:28.000Z,33
2018-08-03T10:39:28.000Z,33
2018-08-03T10:41:28.000Z,32
2018-08-03T10:42:28.000Z,32
2018-08-03T10:43:28.000Z,32
2018-08-03T10:44:28.000Z,32
2018-08-03T10:45:28.000Z,32
2018-08-03T10:47:28.000Z,32
2018-08-03T10:48:28.000Z,32
2018-08-03T10:49:28.000Z,31
2018-08-03T10:50:28.000Z,31
2018-08-03T10:51:28.000Z,31
2018-08-03T10:52:28.000Z,31
2018-08-03T10:53:28.000Z,31
2018-08-03T10:54:28.000Z,31
2018-08-03T10:56:28.000Z,30
2018-08-03T10:58:28.000Z,30
2018-08-03T10:59:28.000Z,30
2018-08-03T11:01:28.000Z,30
2018-08-03T11:03:28.000Z,30
2018-08-03T11:04:28.000Z,30
2018-08-03T11:05:28.000Z,30
2018-08-03T11:06:28.000Z,30
2018-08-03T11:07:28.000Z,30
2018-08-03T11:08:28.000Z,30
2018-08-03T11:09:28.000Z,30
2018-08-03T11:10:28.000Z,30
2018-08-03T11:12:28.000Z,30
2018-08-03T11:13:28.000Z,30
2018-08-03T11:14:28.000Z,30
2018-08-03T11:15:28.000Z,30
2018-08-03T11:16:28.000Z,30
2018-08-03T11:18:28.000Z,30
2018-08-03T11:19:28.000Z,30
2018-08-03T11:20:28.000Z,30
2018-08-03T11:21:28.000Z,30
2018-08-03T11:22:28.000Z,30
2018-08-03T11:23:28.000Z,30
2018-08-03T11:24:28.000Z,30
2018-08-03T11:25:28.000Z,30
2018-08-03T11:26:28.000Z,30
2018-08-03T11:27:28.000Z,30
2018-08-03T11:28:28.000Z,30
2018-08-03T11:29:28.000Z,30
2018-08-03T11:30:28.000Z,30
2018-08-03T11:31:28.000Z,30
2018-08-03T11:32:28.000Z,30
2018-08-03T11:33:28.000Z,30
2018-08-03T11:34:28.000Z,30
2018-08-03T11:36:28.000Z,30
2018-08-03T11:37:28.000Z,30
2018-08-03T11:38:28.000Z,30
2018-08-03T11:39:28.000Z,30
2018-08-03T11:40:28.000Z,30
2018-08-03T11:41:28.000Z,29
2018-08-03T11:42:28.000Z,29
2018-08-03T11:43:28.000Z,29
2018-08-03T11:44:28.000Z,29
2018-08-03T11:46:28.000Z,29
2018-08-03T11:47:28.000Z,29
2018-08-03T11:48:28.000Z,29
2018-08-03T11:49:28.000Z,29
2018-08-03T11:50:28.000Z,29
2018-08-03T11:51:28.000Z,29
2018-08-03T11:52:28.000Z,29
2018-08-03T11:53:28.000Z,29
2018-08-03T11:54:28.000Z,29
2018-08-03T11:55:28.000Z,29
2018-08-03T11:57:28.000Z,29
2018-08-03T11:58:28.000Z,29
2018-08-03T11:59:28.000Z,29
2018-08-03T12:00:28.000Z,29
2018-08-03T12:01:28.000Z,29
2018-08-03T12:02:28.000Z,29
2018-08-03T12:04:28.000Z,29
2018-08-03T12:05:28.000Z,29
2018-08-03T12:06:28.000Z,29
2018-08-03T12:07:28.000Z,29
2018-08-03T12:08:28.000Z,29
2018-08-03T12:09:28.000Z,29
2018-08-03T12:10:28.000Z,29
2018-08-03T12:12:28.000Z,29
2018-08-03T12:14:28.000Z,29
2018-08-03T12:15:28.000Z,29
2018-08-03T12:16:28.000Z,29
2018-08-03T12:17:28.000Z,29
2018-08-03T12:18:28.000Z,29
2018-08-03T12:20:28.000Z,29
2018-08-03T12:21:28.000Z,29
2018-08-03T12:22:28.000Z,29
2018-08-03T12:23:28.000Z,28
2018-08-03T12:24:28.000Z,29
2018-08-03T12:25:28.000Z,28
2018-08-03T12:27:28.000Z,28
2018-08-03T12:29:28.000Z,28
2018-08-03T12:30:28.000Z,28
2018-08-03T12:31:28.000Z,29
2018-08-03T12:32:28.000Z,29
2018-08-03T12:33:28.000Z,28
2018-08-03T12:34:28.000Z,28
2018-08-03T12:35:28.000Z,28
2018-08-03T12:36:28.000Z,28
2018-08-03T12:37:28.000Z,28
2018-08-03T12:38:28.000Z,28
2018-08-03T12:39:28.000Z,28
2018-08-03T12:40:28.000Z,28
2018-08-03T12:41:28.000Z,28
2018-08-03T12:42:28.000Z,28
2018-08-03T12:44:28.000Z,28
2018-08-03T12:45:28.000Z,28
2018-08-03T12:46:28.000Z,28
2018-08-03T12:47:28.000Z,28
2018-08-03T12:48:28.000Z,28
2018-08-03T12:49:28.000Z,28
2018-08-03T12:50:28.000Z,28
2018-08-03T12:52:28.000Z,28
2018-08-03T12:53:28.000Z,28
2018-08-03T12:55:28.000Z,28
2018-08-03T12:56:28.000Z,28
2018-08-03T12:57:28.000Z,28
2018-08-03T12:58:28.000Z,28
2018-08-03T12:59:28.000Z,28
2018-08-03T13:01:28.000Z,28
2018-08-03T13:02:28.000Z,28
2018-08-03T13:03:28.000Z,28
2018-08-03T13:04:28.000Z,28
2018-08-03T13:05:28.000Z,28
2018-08-03T13:06:28.000Z,28
2018-08-03T13:07:28.000Z,28
2018-08-03T13:08:28.000Z,28
2018-08-03T13:09:28.000Z,28
2018-08-03T13:10:28.000Z,28
2018-08-03T13:11:28.000Z,28
2018-08-03T13:12:28.000Z,28
2018-08-03T13:13:28.000Z,28
2018-08-03T13:14:28.000Z,28
2018-08-03T13:15:28.000Z,27
2018-08-03T13:16:28.000Z,27
2018-08-03T13:17:28.000Z,27
2018-08-03T13:18:28.000Z,27
2018-08-03T13:20:28.000Z,27
2018-08-03T13:21:28.000Z,27
2018-08-03T13:22:28.000Z,27
2018-08-03T13:23:28.000Z,27
2018-08-03T13:24:28.000Z,27
2018-08-03T13:26:28.000Z,27
2018-08-03T13:27:28.000Z,27
2018-08-03T13:28:28.000Z,27
2018-08-03T13:29:28.000Z,27
2018-08-03T13:30:28.000Z,27
2018-08-03T13:31:28.000Z,27
2018-08-03T13:32:28.000Z,27
2018-08-03T13:33:28.000Z,27
2018-08-03T13:35:28.000Z,27
2018-08-03T13:36:28.000Z,27
2018-08-03T13:37:28.000Z,27
2018-08-03T13:38:28.000Z,27
2018-08-03T13:39:28.000Z,27
2018-08-03T13:40:28.000Z,27
2018-08-03T13:42:28.000Z,27
2018-08-03T13:43:28.000Z,27
2018-08-03T13:44:28.000Z,27
2018-08-03T13:45:28.000Z,27
2018-08-03T13:47:28.000Z,27
2018-08-03T13:48:28.000Z,27
2018-08-03T13:49:28.000Z,27
2018-08-03T13:51:28.000Z,27
2018-08-03T13:52:28.000Z,27
2018-08-03T13:53:28.000Z,27
2018-08-03T13:55:28.000Z,27
2018-08-03T13:56:28.000Z,27
2018-08-03T13:58:28.000Z,27
2018-08-03T13:59:28.000Z,27
2018-08-03T14:00:28.000Z,27
2018-08-03T14:01:28.000Z,27
2018-08-03T14:03:28.000Z,27
2018-08-03T14:04:28.000Z,27
2018-08-03T14:05:28.000Z,27
2018-08-03T14:06:28.000Z,27
2018-08-03T14:07:28.000Z,27
2018-08-03T14:08:28.000Z,27
2018-08-03T14:09:28.000Z,27
2018-08-03T14:10:28.000Z,27
2018-08-03T14:11:28.000Z,27
2018-08-03T14:12:28.000Z,27
2018-08-03T14:13:28.000Z,27
2018-08-03T14:14:28.000Z,27
2018-08-03T14:15:28.000Z,26
2018-08-03T14:16:28.000Z,27
2018-08-03T14:17:28.000Z,26
2018-08-03T14:18:28.000Z,26
2018-08-03T14:19:28.000Z,26
2018-08-03T14:20:28.000Z,26
2018-08-03T14:21:28.000Z,26
2018-08-03T14:22:28.000Z,26
2018-08-03T14:23:28.000Z,26
2018-08-03T14:24:28.000Z,26
2018-08-03T14:25:28.000Z,26
2018-08-03T14:26:28.000Z,26
2018-08-03T14:27:28.000Z,26
2018-08-03T14:28:28.000Z,26
2018-08-03T14:29:28.000Z,26
2018-08-03T14:30:28.000Z,26
2018-08-03T14:31:28.000Z,26
2018-08-03T14:32:28.000Z,26
2018-08-03T14:33:28.000Z,26
2018-08-03T14:34:28.000Z,26
2018-08-03T14:36:28.000Z,26
2018-08-03T14:37:28.000Z,26
2018-08-03T14:38:28.000Z,26
2018-08-03T14:40:28.000Z,26
2018-08-03T14:41:28.000Z,26
2018-08-03T14:42:28.000Z,26
2018-08-03T14:43:28.000Z,26
2018-08-03T14:44:28.000Z,26
2018-08-03T14:45:28.000Z,26
2018-08-03T14:46:28.000Z,26
2018-08-03T14:47:28.000Z,26
2018-08-03T14:48:28.000Z,26
2018-08-03T14:49:28.000Z,26
2018-08-03T14:50:28.000Z,26
2018-08-03T14:52:28.000Z,26
2018-08-03T14:53:28.000Z,26
2018-08-03T14:54:28.000Z,26
2018-08-03T14:55:28.000Z,26
2018-08-03T14:56:28.000Z,26
2018-08-03T14:58:28.000Z,26
2018-08-03T14:59:28.000Z,26
2018-08-03T15:00:28.000Z,26
2018-08-03T15:01:28.000Z,26
2018-08-03T15:02:28.000Z,26
2018-08-03T15:03:28.000Z,26
2018-08-03T15:04:28.000Z,26
2018-08-03T15:05:28.000Z,26
2018-08-03T15:06:28.000Z,26
2018-08-03T15:08:28.000Z,26
2018-08-03T15:09:28.000Z,26
2018-08-03T15:10:28.000Z,26
2018-08-03T15:11:28.000Z,26
2018-08-03T15:12:28.000Z,26
2018-08-03T15:13:28.000Z,26
2018-08-03T15:14:28.000Z,26
2018-08-03T15:15:28.000Z,26
2018-08-03T15:17:28.000Z,26
2018-08-03T15:18:28.000Z,26
2018-08-03T15:19:28.000Z,26
2018-08-03T15:20:28.000Z,26
2018-08-03T15:21:28.000Z,26
2018-08-03T15:22:28.000Z,26
2018-08-03T15:23:28.000Z,26
2018-08-03T15:24:28.000Z,26
2018-08-03T15:26:28.000Z,26
2018-08-03T15:27:28.000Z,26
2018-08-03T15:28:28.000Z,26
2018-08-03T15:29:28.000Z,26
2018-08-03T15:30:28.000Z,26
2018-08-03T15:32:28.000Z,26
2018-08-03T15:34:28.000Z,26
2018-08-03T15:35:28.000Z,26
2018-08-03T15:36:28.000Z,27
2018-08-03T15:37:28.000Z,27
2018-08-03T15:38:28.000Z,27
2018-08-03T15:39:28.000Z,27
2018-08-03T15:40:28.000Z,27
2018-08-03T15:41:28.000Z,27
2018-08-03T15:43:28.000Z,27
2018-08-03T15:45:28.000Z,27
2018-08-03T15:46:28.000Z,27
2018-08-03T15:47:28.000Z,27
2018-08-03T15:48:28.000Z,27
2018-08-03T15:50:28.000Z,27
2018-08-03T15:51:28.000Z,27
2018-08-03T15:52:28.000Z,27
2018-08-03T15:53:28.000Z,27
2018-08-03T15:54:28.000Z,27
2018-08-03T15:56:28.000Z,27
2018-08-03T15:57:28.000Z,27
2018-08-03T15:58:28.000Z,27
2018-08-03T15:59:28.000Z,27
2018-08-03T16:00:28.000Z,27
2018-08-03T16:02:28.000Z,27
2018-08-03T16:04:28.000Z,27
2018-08-03T16:05:28.000Z,27
2018-08-03T16:06:28.000Z,27
2018-08-03T16:07:28.000Z,27
2018-08-03T16:08:28.000Z,27
2018-08-03T16:09:28.000Z,27
2018-08-03T16:10:28.000Z,27
2018-08-03T16:11:28.000Z,27
2018-08-03T16:12:28.000Z,27
2018-08-03T16:13:28.000Z,27
2018-08-03T16:14:28.000Z,28